Terminal Aerodrome Forecast
Issued by NWS

Home | Current Version | Previous Version | Text Only | Print | Product List | Glossary On
Versions: 1 2 3 4 5 6 7 8 9 10 11 12 13 14 15
000
FTUS42 KILM 301724
TAFCRE
TAF
KCRE 301724Z 3018/0118 20012KT P6SM SCT020 SCT090
      TEMPO 3018/3021 4SM -TSRA BKN020CB
     FM010100 20005KT P6SM SCT020 SCT080
     FM011200 18008KT P6SM VCSH SCT020=

USA.gov is the U.S. government's official web portal to all federal, state and local government web resources and services.